createdAt,value
2023-01-03T00:00:59.475Z,100637.61
2023-01-03T00:02:02.884Z,100634.97
2023-01-03T00:03:07.235Z,100629.70
2023-01-03T00:04:10.613Z,100632.72
2023-01-03T00:05:14.025Z,100632.02
2023-01-03T00:06:18.237Z,100632.94
2023-01-03T00:07:25.016Z,100623.33
2023-01-03T00:08:29.879Z,100630.25
2023-01-03T00:09:32.224Z,100626.87
2023-01-03T00:10:37.223Z,100626.76
2023-01-03T00:11:58.777Z,100626.53
2023-01-03T00:13:03.001Z,100622.86
2023-01-03T00:14:09.111Z,100611.16
2023-01-03T00:15:14.485Z,100624.20
2023-01-03T00:16:20.187Z,100619.73
2023-01-03T00:17:23.766Z,100618.82
2023-01-03T00:18:27.108Z,100627.58
2023-01-03T00:19:31.250Z,100621.57
2023-01-03T00:20:35.132Z,100618.94
2023-01-03T00:21:39.090Z,100622.48
2023-01-03T00:22:42.389Z,100619.85
2023-01-03T00:23:47.779Z,100618.94
2023-01-03T00:24:53.361Z,100626.72
2023-01-03T00:25:58.224Z,100620.48
2023-01-03T00:27:01.387Z,100617.75
2023-01-03T00:28:06.258Z,100618.61
2023-01-03T00:29:09.913Z,100616.78
2023-01-03T00:30:16.756Z,100620.27
2023-01-03T00:31:22.628Z,100615.74
2023-01-03T00:32:28.272Z,100619.97
2023-01-03T00:33:32.222Z,100613.23
2023-01-03T00:34:36.923Z,100619.17
2023-01-03T00:35:40.534Z,100610.23
2023-01-03T00:36:44.252Z,100613.58
2023-01-03T00:37:46.693Z,100610.94
2023-01-03T00:38:50.968Z,100607.39
2023-01-03T00:39:55.378Z,100609.11
2023-01-03T00:41:09.198Z,100610.64
2023-01-03T00:42:12.415Z,100605.38
2023-01-03T00:43:30.125Z,100598.32
2023-01-03T00:44:35.147Z,100603.59
2023-01-03T00:45:38.507Z,100596.48
2023-01-03T00:46:42.523Z,100594.70
2023-01-03T00:47:45.310Z,100596.42
2023-01-03T00:48:49.658Z,100593.84
2023-01-03T00:49:55.232Z,100595.69
2023-01-03T00:51:03.864Z,100593.97
2023-01-03T00:52:07.159Z,100586.06
2023-01-03T00:53:11.811Z,100590.36
2023-01-03T00:54:14.588Z,100585.14
2023-01-03T00:55:18.094Z,100580.73
2023-01-03T00:56:22.640Z,100585.14
2023-01-03T00:57:26.470Z,100585.95
2023-01-03T00:58:30.788Z,100578.84
2023-01-03T00:59:35.128Z,100587.66
2023-01-03T01:00:38.967Z,100578.90
2023-01-03T01:01:47.297Z,100577.12
2023-01-03T01:02:48.488Z,100565.84
2023-01-03T01:03:54.716Z,100569.33
2023-01-03T01:05:00.097Z,100569.39
2023-01-03T01:06:23.542Z,100577.23
2023-01-03T01:07:26.435Z,100568.48
2023-01-03T01:08:28.976Z,100568.60
2023-01-03T01:09:36.139Z,100564.25
2023-01-03T01:10:44.435Z,100572.22
2023-01-03T01:11:49.067Z,100568.66
2023-01-03T01:12:54.279Z,100568.48
2023-01-03T01:13:57.218Z,100571.05
2023-01-03T01:15:03.177Z,100568.48
2023-01-03T01:16:08.450Z,100568.66
2023-01-03T01:17:12.057Z,100559.77
2023-01-03T01:18:17.233Z,100565.91
2023-01-03T01:19:21.988Z,100552.67
2023-01-03T01:20:24.242Z,100564.92
2023-01-03T01:21:29.839Z,100557.88
2023-01-03T01:22:34.400Z,100549.23
2023-01-03T01:23:41.499Z,100550.09
2023-01-03T01:24:45.367Z,100551.75
2023-01-03T01:25:48.692Z,100554.38
2023-01-03T01:26:52.227Z,100546.60
2023-01-03T01:27:57.542Z,100539.89
2023-01-03T01:29:01.269Z,100539.22
2023-01-03T01:30:06.157Z,100539.28
2023-01-03T01:31:10.510Z,100540.72
2023-01-03T01:32:16.787Z,100538.94
2023-01-03T01:33:20.436Z,100531.13
2023-01-03T01:34:23.073Z,100530.27
2023-01-03T01:35:26.481Z,100526.84
2023-01-03T01:36:31.963Z,100524.20
2023-01-03T01:37:35.144Z,100526.11
2023-01-03T01:38:38.337Z,100518.27
2023-01-03T01:39:41.008Z,100523.53
2023-01-03T01:40:45.283Z,100512.27
2023-01-03T01:42:07.244Z,100515.02
2023-01-03T01:43:37.175Z,100524.80
2023-01-03T01:44:54.877Z,100515.11
2023-01-03T01:46:01.658Z,100515.02
2023-01-03T01:47:04.949Z,100514.25
2023-01-03T01:48:09.156Z,100507.33
2023-01-03T01:49:14.446Z,100511.80
2023-01-03T01:50:27.662Z,100513.64
2023-01-03T01:51:34.293Z,100509.35
2023-01-03T01:52:42.216Z,100516.45
2023-01-03T01:53:45.908Z,100512.20
2023-01-03T01:54:50.556Z,100510.48
2023-01-03T01:55:58.461Z,100502.70
2023-01-03T01:57:02.055Z,100500.19
2023-01-03T01:58:06.212Z,100504.59
2023-01-03T01:59:10.534Z,100502.89
2023-01-03T02:00:14.767Z,100501.11
2023-01-03T02:01:23.275Z,100498.53
2023-01-03T02:02:27.855Z,100501.17
2023-01-03T02:03:31.718Z,100493.39
2023-01-03T02:04:37.040Z,100492.80
2023-01-03T02:05:41.171Z,100491.09
2023-01-03T02:06:44.807Z,100491.20
2023-01-03T02:07:49.526Z,100481.66
2023-01-03T02:08:52.823Z,100489.67
2023-01-03T02:09:57.598Z,100482.69
2023-01-03T02:11:02.769Z,100479.30
2023-01-03T02:12:40.836Z,100481.01
2023-01-03T02:13:51.443Z,100478.44
2023-01-03T02:15:13.865Z,100474.89
2023-01-03T02:17:36.542Z,100470.33
2023-01-03T02:18:42.313Z,100471.69
2023-01-03T02:20:03.810Z,100475.36
2023-01-03T02:21:18.269Z,100469.30
2023-01-03T02:22:21.706Z,100473.73
2023-01-03T02:23:31.552Z,100469.38
2023-01-03T02:24:42.797Z,100468.64
2023-01-03T02:26:02.596Z,100469.56
2023-01-03T02:27:23.760Z,100465.21
2023-01-03T02:28:45.640Z,100462.64
2023-01-03T02:30:08.058Z,100464.30
2023-01-03T02:31:14.468Z,100463.32
2023-01-03T02:32:22.361Z,100457.20
2023-01-03T02:33:33.504Z,100459.83
2023-01-03T02:34:43.714Z,100453.83
2023-01-03T02:35:50.641Z,100451.38
2023-01-03T02:36:56.341Z,100451.58
2023-01-03T02:38:07.679Z,100454.50
2023-01-03T02:39:19.111Z,100451.13
2023-01-03T02:40:26.909Z,100452.90
2023-01-03T02:41:48.064Z,100451.02
2023-01-03T02:42:58.053Z,100443.92
2023-01-03T02:44:03.329Z,100447.09
2023-01-03T02:45:08.714Z,100449.42
2023-01-03T02:46:13.949Z,100440.44
2023-01-03T02:47:19.158Z,100446.29
2023-01-03T02:48:30.300Z,100449.54
2023-01-03T02:49:39.340Z,100441.31
2023-01-03T02:50:48.839Z,100440.21
2023-01-03T02:51:55.751Z,100439.17
2023-01-03T02:53:03.644Z,100433.05
2023-01-03T02:54:11.951Z,100437.24
2023-01-03T02:55:20.273Z,100436.27
2023-01-03T02:56:25.322Z,100430.88
2023-01-03T02:57:39.181Z,100424.94
2023-01-03T02:58:48.465Z,100429.09
2023-01-03T02:59:55.786Z,100427.45
2023-01-03T03:01:02.721Z,100419.88
2023-01-03T03:02:09.900Z,100427.45
2023-01-03T03:03:15.164Z,100417.95
2023-01-03T03:04:19.860Z,100417.83
2023-01-03T03:05:25.337Z,100416.91
2023-01-03T03:06:48.691Z,100419.55
2023-01-03T03:07:51.980Z,100406.44
2023-01-03T03:08:55.381Z,100417.09
2023-01-03T03:10:17.689Z,100414.47
2023-01-03T03:11:40.934Z,100414.62
2023-01-03T03:13:04.224Z,100409.20
2023-01-03T03:14:12.488Z,100408.62
2023-01-03T03:15:17.862Z,100405.13
2023-01-03T03:16:27.913Z,100411.06
2023-01-03T03:17:31.498Z,100410.22
2023-01-03T03:18:36.316Z,100405.01
2023-01-03T03:20:04.521Z,100398.95
2023-01-03T03:21:24.686Z,100409.08
2023-01-03T03:22:58.484Z,100404.95
2023-01-03T03:24:20.321Z,100404.58
2023-01-03T03:25:26.918Z,100397.30
2023-01-03T03:26:37.495Z,100404.67
2023-01-03T03:28:01.188Z,100412.75
2023-01-03T03:29:05.738Z,100418.02
2023-01-03T03:30:10.982Z,100413.39
2023-01-03T03:31:20.039Z,100413.55
2023-01-03T03:32:24.822Z,100411.95
2023-01-03T03:33:31.701Z,100409.33
2023-01-03T03:34:36.303Z,100402.05
2023-01-03T03:35:41.483Z,100406.75
2023-01-03T03:36:49.828Z,100405.95
2023-01-03T03:37:55.302Z,100405.95
2023-01-03T03:38:59.111Z,100411.04
2023-01-03T03:40:20.155Z,100412.57
2023-01-03T03:41:47.865Z,100411.56
2023-01-03T03:43:11.563Z,100402.69
2023-01-03T03:44:51.641Z,100410.64
2023-01-03T03:46:03.841Z,100413.27
2023-01-03T03:47:11.722Z,100402.69
2023-01-03T03:48:16.039Z,100402.96
2023-01-03T03:49:40.452Z,100402.16
2023-01-03T03:50:47.588Z,100390.96
2023-01-03T03:51:53.827Z,100399.04
2023-01-03T03:52:59.093Z,100399.84
2023-01-03T03:54:03.736Z,100397.76
2023-01-03T03:55:08.392Z,100401.19
2023-01-03T03:56:16.628Z,100396.11
2023-01-03T03:57:20.946Z,100390.72
2023-01-03T03:58:26.577Z,100394.97
2023-01-03T03:59:31.640Z,100389.52
2023-01-03T04:00:36.468Z,100394.20
2023-01-03T04:01:44.798Z,100395.19
2023-01-03T04:04:06.451Z,100380.64
2023-01-03T04:05:11.610Z,100382.95
2023-01-03T04:06:21.883Z,100381.23
2023-01-03T04:07:26.428Z,100381.36
2023-01-03T04:08:29.101Z,100380.13
2023-01-03T04:09:32.186Z,100380.89
2023-01-03T04:10:38.044Z,100386.95
2023-01-03T04:11:39.840Z,100383.34
2023-01-03T04:12:50.024Z,100383.47
2023-01-03T04:13:56.341Z,100377.28
2023-01-03T04:14:59.694Z,100379.37
2023-01-03T04:16:03.541Z,100363.20
2023-01-03T04:17:07.379Z,100362.41
2023-01-03T04:18:09.735Z,100364.25
2023-01-03T04:19:12.515Z,100363.27
2023-01-03T04:20:15.199Z,100360.58
2023-01-03T04:21:22.341Z,100363.08
2023-01-03T04:22:25.634Z,100355.97
2023-01-03T04:23:29.489Z,100355.02
2023-01-03T04:24:32.122Z,100348.27
2023-01-03T04:25:35.303Z,100354.32
2023-01-03T04:26:38.612Z,100344.05
2023-01-03T04:27:42.646Z,100345.63
2023-01-03T04:28:45.317Z,100332.40
2023-01-03T04:29:48.522Z,100340.17
2023-01-03T04:30:51.991Z,100339.38
2023-01-03T04:31:55.455Z,100337.60
2023-01-03T04:32:59.540Z,100334.17
2023-01-03T04:34:03.250Z,100333.19
2023-01-03T04:35:07.484Z,100336.69
2023-01-03T04:36:10.273Z,100331.55
2023-01-03T04:37:13.661Z,100329.64
2023-01-03T04:38:18.315Z,100328.91
2023-01-03T04:39:21.077Z,100331.17
2023-01-03T04:40:24.591Z,100343.86
2023-01-03T04:41:27.886Z,100346.16
2023-01-03T04:42:48.835Z,100335.45
2023-01-03T04:44:05.403Z,100345.49
2023-01-03T04:45:12.412Z,100343.20
2023-01-03T04:46:15.927Z,100344.17
2023-01-03T04:47:19.775Z,100339.09
2023-01-03T04:48:24.015Z,100346.59
2023-01-03T04:49:27.626Z,100345.85
2023-01-03T04:50:31.324Z,100350.59
2023-01-03T04:51:35.156Z,100350.47
2023-01-03T04:52:38.555Z,100346.30
2023-01-03T04:53:42.060Z,100348.94
2023-01-03T04:54:45.248Z,100352.95
2023-01-03T04:55:49.661Z,100343.91
2023-01-03T04:56:53.094Z,100350.14
2023-01-03T04:57:56.714Z,100350.23
2023-01-03T04:59:00.019Z,100358.18
2023-01-03T05:00:04.317Z,100354.87
2023-01-03T05:01:10.299Z,100357.50
2023-01-03T05:02:14.009Z,100356.34
2023-01-03T05:03:27.455Z,100354.42
2023-01-03T05:04:27.434Z,100348.94
2023-01-03T05:05:32.528Z,100345.27
2023-01-03T05:06:37.175Z,100340.86
2023-01-03T05:07:41.836Z,100337.38
2023-01-03T05:08:50.143Z,100338.35
2023-01-03T05:09:53.739Z,100331.50
2023-01-03T05:10:59.611Z,100335.66
2023-01-03T05:12:03.178Z,100340.92
2023-01-03T05:13:10.745Z,100335.61
2023-01-03T05:14:14.635Z,100336.25
2023-01-03T05:15:18.084Z,100336.13
2023-01-03T05:16:20.478Z,100334.11
2023-01-03T05:17:22.988Z,100334.91
2023-01-03T05:18:27.396Z,100329.55
2023-01-03T05:19:30.784Z,100332.28
2023-01-03T05:20:54.923Z,100333.10
2023-01-03T05:22:17.331Z,100328.70
2023-01-03T05:23:38.570Z,100322.39
2023-01-03T05:24:42.817Z,100320.68
2023-01-03T05:25:52.288Z,100320.68
2023-01-03T05:26:56.101Z,100319.83
2023-01-03T05:28:03.744Z,100330.16
2023-01-03T05:29:08.430Z,100328.79
2023-01-03T05:30:12.245Z,100337.60
2023-01-03T05:31:16.802Z,100332.52
2023-01-03T05:32:21.120Z,100327.20
2023-01-03T05:33:23.331Z,100325.42
2023-01-03T05:34:27.793Z,100326.22
2023-01-03T05:35:34.474Z,100323.59
2023-01-03T05:36:37.767Z,100321.60
2023-01-03T05:37:40.016Z,100324.30
2023-01-03T05:38:44.478Z,100327.66
2023-01-03T05:39:48.994Z,100323.12
2023-01-03T05:40:55.219Z,100325.70
2023-01-03T05:42:02.574Z,100324.84
2023-01-03T05:43:07.421Z,100328.58
2023-01-03T05:44:10.859Z,100320.44
2023-01-03T05:45:14.581Z,100324.66
2023-01-03T05:46:18.612Z,100328.33
2023-01-03T05:47:22.331Z,100328.39
2023-01-03T05:48:25.694Z,100324.97
2023-01-03T05:49:29.240Z,100326.67
2023-01-03T05:50:32.794Z,100326.61
2023-01-03T05:51:36.021Z,100326.49
2023-01-03T05:52:40.083Z,100320.16
2023-01-03T05:53:44.711Z,100321.23
2023-01-03T05:56:05.639Z,100325.17
2023-01-03T05:57:08.491Z,100323.73
2023-01-03T05:58:13.758Z,100320.16
2023-01-03T05:59:16.953Z,100323.86
2023-01-03T06:00:23.200Z,100327.19
2023-01-03T06:01:26.223Z,100331.48
2023-01-03T06:02:31.681Z,100345.42
2023-01-03T06:03:35.060Z,100334.84
2023-01-03T06:04:38.493Z,100340.96
2023-01-03T06:05:49.524Z,100337.47
2023-01-03T06:06:47.588Z,100340.16
2023-01-03T06:07:54.198Z,100345.42
2023-01-03T06:08:57.416Z,100346.34
2023-01-03T06:10:01.312Z,100343.84
2023-01-03T06:11:13.357Z,100340.29
2023-01-03T06:12:16.991Z,100335.02
2023-01-03T06:13:21.969Z,100335.76
2023-01-03T06:14:25.355Z,100343.59
2023-01-03T06:15:27.623Z,100337.53
2023-01-03T06:16:50.982Z,100330.78
2023-01-03T06:18:03.189Z,100338.27
2023-01-03T06:19:07.682Z,100324.38
2023-01-03T06:20:10.352Z,100336.48
2023-01-03T06:21:13.858Z,100331.41
2023-01-03T06:22:18.252Z,100323.08
2023-01-03T06:23:21.491Z,100325.55
2023-01-03T06:24:24.269Z,100327.08
2023-01-03T06:25:32.821Z,100339.58
2023-01-03T06:26:36.044Z,100329.70
2023-01-03T06:27:40.216Z,100335.83
2023-01-03T06:28:45.910Z,100348.20
2023-01-03T06:29:49.233Z,100347.53
2023-01-03T06:30:53.012Z,100342.27
2023-01-03T06:31:55.278Z,100337.16
2023-01-03T06:32:59.311Z,100342.02
2023-01-03T06:34:04.283Z,100340.84
2023-01-03T06:35:11.065Z,100344.05
2023-01-03T06:36:16.295Z,100342.93
2023-01-03T06:37:19.790Z,100344.70
2023-01-03T06:38:22.972Z,100348.07
2023-01-03T06:39:26.704Z,100342.52
2023-01-03T06:40:37.067Z,100341.27
2023-01-03T06:41:36.227Z,100345.45
2023-01-03T06:42:44.632Z,100343.05
2023-01-03T06:43:48.151Z,100345.13
2023-01-03T06:45:09.639Z,100342.13
2023-01-03T06:46:31.666Z,100333.75
2023-01-03T06:47:53.287Z,100328.48
2023-01-03T06:49:18.422Z,100337.62
2023-01-03T06:50:43.532Z,100329.38
2023-01-03T06:52:07.438Z,100329.84
2023-01-03T06:53:15.310Z,100325.17
2023-01-03T06:54:23.498Z,100326.41
2023-01-03T06:55:26.693Z,100317.05
2023-01-03T06:56:29.980Z,100322.97
2023-01-03T06:57:34.144Z,100319.55
2023-01-03T06:58:37.349Z,100324.21
2023-01-03T06:59:39.984Z,100322.11
2023-01-03T07:00:45.787Z,100318.39
2023-01-03T07:01:48.962Z,100314.77
2023-01-03T07:02:54.896Z,100319.42
2023-01-03T07:03:58.846Z,100322.67
2023-01-03T07:05:03.286Z,100316.01
2023-01-03T07:06:08.534Z,100316.16
2023-01-03T07:07:11.610Z,100316.25
2023-01-03T07:08:17.618Z,100321.43
2023-01-03T07:09:21.166Z,100318.37
2023-01-03T07:10:24.856Z,100316.69
2023-01-03T07:11:28.256Z,100321.67
2023-01-03T07:12:49.620Z,100329.53
2023-01-03T07:14:00.203Z,100334.41
2023-01-03T07:15:03.892Z,100338.91
2023-01-03T07:16:06.771Z,100336.11
2023-01-03T07:17:10.130Z,100329.59
2023-01-03T07:18:14.564Z,100323.55
2023-01-03T07:19:20.571Z,100328.20
2023-01-03T07:20:27.172Z,100316.92
2023-01-03T07:22:42.890Z,100305.48
2023-01-03T07:23:46.173Z,100308.41
2023-01-03T07:24:49.186Z,100303.23
2023-01-03T07:25:53.705Z,100311.16
2023-01-03T07:26:57.867Z,100318.17
2023-01-03T07:28:08.027Z,100340.31
2023-01-03T07:29:11.542Z,100332.47
2023-01-03T07:30:15.467Z,100332.09
2023-01-03T07:31:21.937Z,100329.75
2023-01-03T07:32:28.366Z,100338.05
2023-01-03T07:33:34.045Z,100340.16
2023-01-03T07:34:37.632Z,100336.03
2023-01-03T07:35:41.293Z,100333.09
2023-01-03T07:36:44.842Z,100338.91
2023-01-03T07:37:47.736Z,100332.75
2023-01-03T07:38:52.279Z,100328.37
2023-01-03T07:39:54.979Z,100330.50
2023-01-03T07:40:59.183Z,100339.31
2023-01-03T07:42:21.061Z,100338.83
2023-01-03T07:43:40.145Z,100338.22
2023-01-03T07:44:43.454Z,100343.08
2023-01-03T07:45:47.474Z,100340.09
2023-01-03T07:46:50.876Z,100345.70
2023-01-03T07:47:58.026Z,100341.38
2023-01-03T07:49:06.554Z,100343.91
2023-01-03T07:50:12.167Z,100350.98
2023-01-03T07:51:16.795Z,100359.23
2023-01-03T07:52:20.088Z,100353.75
2023-01-03T07:53:23.266Z,100361.36
2023-01-03T07:54:25.951Z,100360.20
2023-01-03T07:55:29.249Z,100360.66
2023-01-03T07:56:33.167Z,100364.67
2023-01-03T07:57:36.046Z,100363.30
2023-01-03T07:58:38.809Z,100370.79
2023-01-03T07:59:42.218Z,100364.22
2023-01-03T08:00:44.706Z,100368.41
2023-01-03T08:01:47.952Z,100358.18
2023-01-03T08:02:55.380Z,100356.56
2023-01-03T08:03:58.736Z,100360.73
2023-01-03T08:05:02.826Z,100362.55
2023-01-03T08:06:17.039Z,100357.03
2023-01-03T10:43:44.650Z,100299.89
2023-01-03T10:45:03.519Z,100303.92
2023-01-03T10:46:07.973Z,100299.06
2023-01-03T10:47:13.547Z,100301.39
2023-01-03T10:48:16.843Z,100299.91
2023-01-03T10:49:27.989Z,100296.52
2023-01-03T10:50:29.394Z,100302.04
2023-01-03T10:51:42.570Z,100301.09
2023-01-03T10:52:43.196Z,100297.16
2023-01-03T10:53:46.926Z,100300.98
2023-01-03T10:54:54.211Z,100298.43
2023-01-03T10:55:58.887Z,100304.17
2023-01-03T10:57:02.429Z,100306.95
2023-01-03T10:58:18.440Z,100316.62
2023-01-03T10:59:24.682Z,100312.66
2023-01-03T11:01:57.517Z,100304.19
2023-01-03T11:03:11.997Z,100308.32
2023-01-03T11:04:18.684Z,100322.59
2023-01-03T11:05:23.250Z,100322.59
2023-01-03T11:06:26.652Z,100330.44
2023-01-03T11:07:29.347Z,100327.78
2023-01-03T11:08:41.504Z,100327.82
2023-01-03T11:09:52.250Z,100325.47
2023-01-03T11:10:57.537Z,100328.14
2023-01-03T11:12:02.291Z,100325.81
2023-01-03T11:13:24.534Z,100319.75
2023-01-03T11:14:29.504Z,100325.92
2023-01-03T11:15:38.852Z,100328.23
2023-01-03T11:16:39.555Z,100328.34
2023-01-03T11:17:59.145Z,100330.59
2023-01-03T11:19:06.851Z,100330.38
2023-01-03T11:20:15.978Z,100339.51
2023-01-03T11:21:22.525Z,100333.46
2023-01-03T11:22:38.152Z,100344.52
2023-01-03T11:24:00.134Z,100337.28
2023-01-03T11:25:22.951Z,100335.28
2023-01-03T11:26:39.001Z,100337.61
2023-01-03T11:27:49.850Z,100343.67
2023-01-03T11:29:06.275Z,100338.56
2023-01-03T11:30:29.540Z,100340.36
2023-01-03T11:31:43.496Z,100344.08
2023-01-03T11:33:03.269Z,100342.63
2023-01-03T11:34:08.652Z,100344.83
2023-01-03T11:35:23.490Z,100345.47
2023-01-03T11:36:43.281Z,100350.05
2023-01-03T11:37:57.176Z,100341.42
2023-01-03T11:39:10.966Z,100342.48
2023-01-03T11:40:14.336Z,100336.66
2023-01-03T11:41:23.321Z,100339.22
2023-01-03T11:42:36.274Z,100336.76
2023-01-03T11:43:44.693Z,100338.56
2023-01-03T11:45:05.064Z,100348.45
2023-01-03T11:46:20.457Z,100347.09
2023-01-03T11:47:27.834Z,100351.55
2023-01-03T11:48:33.081Z,100354.61
2023-01-03T11:49:37.508Z,100352.70
2023-01-03T11:50:58.870Z,100351.55
2023-01-03T11:52:11.045Z,100360.38
2023-01-03T11:53:15.212Z,100358.23
2023-01-03T11:54:20.357Z,100359.94
2023-01-03T11:55:28.466Z,100359.73
2023-01-03T11:56:34.687Z,100357.28
2023-01-03T11:57:38.808Z,100375.58
2023-01-03T11:58:50.185Z,100359.39
2023-01-03T12:00:12.471Z,100363.55
2023-01-03T12:01:32.785Z,100357.48
2023-01-03T12:02:44.247Z,100360.22
2023-01-03T12:04:06.380Z,100370.55
2023-01-03T12:05:17.551Z,100363.75
2023-01-03T12:06:29.185Z,100359.53
2023-01-03T12:07:47.725Z,100362.60
2023-01-03T12:08:43.128Z,100363.99
2023-01-03T12:09:51.051Z,100367.69
2023-01-03T12:10:58.627Z,100382.88
2023-01-03T12:12:22.668Z,100378.17
2023-01-03T12:13:31.637Z,100374.36
2023-01-03T12:14:43.036Z,100379.58
2023-01-03T12:15:52.140Z,100383.05
2023-01-03T12:16:57.362Z,100385.62
2023-01-03T12:18:02.457Z,100380.52
2023-01-03T12:19:12.779Z,100379.05
2023-01-03T12:20:24.515Z,100379.02
2023-01-03T12:21:37.920Z,100379.87
2023-01-03T12:22:42.985Z,100388.23
2023-01-03T12:24:03.821Z,100388.66
2023-01-03T12:25:12.774Z,100383.05
2023-01-03T12:26:17.675Z,100381.94
2023-01-03T12:27:28.617Z,100384.23
2023-01-03T12:28:41.353Z,100385.21
2023-01-03T12:29:56.192Z,100385.84
2023-01-03T12:31:01.717Z,100382.50
2023-01-03T12:32:12.552Z,100375.58
2023-01-03T12:33:31.035Z,100375.58
2023-01-03T12:34:45.343Z,100377.19
2023-01-03T12:35:50.419Z,100372.63
2023-01-03T12:37:11.064Z,100363.25
2023-01-03T12:38:15.202Z,100359.97
2023-01-03T12:39:36.039Z,100363.90
2023-01-03T12:40:41.633Z,100353.83
2023-01-03T12:41:46.067Z,100353.65
2023-01-03T12:43:07.367Z,100354.50
2023-01-03T12:44:16.275Z,100358.63
2023-01-03T12:45:34.023Z,100348.65
2023-01-03T12:46:34.212Z,100349.40
2023-01-03T12:47:55.293Z,100355.12
2023-01-03T12:49:09.361Z,100349.28
2023-01-03T12:50:17.670Z,100359.16
2023-01-03T12:51:22.387Z,100357.66
2023-01-03T12:52:26.036Z,100347.88
2023-01-03T12:53:30.796Z,100348.73
2023-01-03T12:54:51.209Z,100352.22
2023-01-03T12:55:57.849Z,100343.40
2023-01-03T12:57:13.377Z,100355.70
2023-01-03T12:58:39.747Z,100358.00
2023-01-03T12:59:55.885Z,100357.77
2023-01-03T13:01:19.145Z,100364.06
2023-01-03T13:02:32.950Z,100357.38
2023-01-03T13:03:38.840Z,100347.80
2023-01-03T13:04:43.133Z,100366.16
2023-01-03T13:05:48.426Z,100361.27
2023-01-03T13:06:52.639Z,100381.20
2023-01-03T13:07:56.770Z,100370.67
2023-01-03T13:09:01.900Z,100377.06
2023-01-03T13:10:08.719Z,100378.68
2023-01-03T13:11:30.483Z,100381.23
2023-01-03T13:12:37.326Z,100388.16
2023-01-03T13:13:43.258Z,100385.70
2023-01-03T13:15:03.250Z,100392.75
2023-01-03T13:16:26.279Z,100391.70
2023-01-03T13:17:31.356Z,100395.40
2023-01-03T13:18:35.519Z,100402.60
2023-01-03T13:19:39.398Z,100401.75
2023-01-03T13:20:49.667Z,100401.20
2023-01-03T13:21:54.942Z,100401.55
2023-01-03T13:22:58.909Z,100401.64
2023-01-03T13:24:02.195Z,100409.79
2023-01-03T13:25:24.301Z,100413.39
2023-01-03T13:26:28.781Z,100412.17
2023-01-03T13:27:35.932Z,100422.52
2023-01-03T13:28:41.154Z,100411.68
2023-01-03T13:29:45.859Z,100415.41
2023-01-03T13:30:51.129Z,100415.09
2023-01-03T13:32:03.179Z,100417.39
2023-01-03T13:33:16.205Z,100422.30
2023-01-03T13:34:21.226Z,100421.08
2023-01-03T13:35:32.410Z,100429.04
2023-01-03T13:36:54.290Z,100431.69
2023-01-03T13:38:00.398Z,100428.46
2023-01-03T13:39:05.585Z,100438.13
2023-01-03T13:40:10.861Z,100440.23
2023-01-03T13:41:34.117Z,100446.84
2023-01-03T13:42:38.030Z,100446.48
2023-01-03T13:43:41.172Z,100444.11
2023-01-03T13:44:44.937Z,100440.78
2023-01-03T13:45:53.490Z,100445.91
2023-01-03T13:46:56.183Z,100439.38
2023-01-03T13:48:00.456Z,100438.22
2023-01-03T13:49:05.779Z,100444.95
2023-01-03T13:50:17.292Z,100444.47
2023-01-03T13:51:36.582Z,100450.63
2023-01-03T13:52:41.746Z,100453.59
2023-01-03T13:53:56.834Z,100446.57
2023-01-03T13:55:00.267Z,100457.00
2023-01-03T13:56:09.393Z,100454.14
2023-01-03T13:57:33.994Z,100442.58
2023-01-03T13:59:52.913Z,100446.09
2023-01-03T14:01:05.259Z,100453.19
2023-01-03T14:02:20.583Z,100460.39
2023-01-03T14:03:37.509Z,100456.24
2023-01-03T14:04:59.349Z,100459.08
2023-01-03T14:06:07.248Z,100459.56
2023-01-03T14:07:24.443Z,100466.19
2023-01-03T14:08:35.916Z,100461.06
2023-01-03T14:09:59.251Z,100468.75
2023-01-03T14:11:07.760Z,100471.77
2023-01-03T14:12:21.443Z,100470.19
2023-01-03T14:13:31.121Z,100471.97
2023-01-03T14:14:39.149Z,100487.59
2023-01-03T14:15:45.729Z,100476.80
2023-01-03T14:16:52.171Z,100494.14
2023-01-03T14:17:56.890Z,100485.48
2023-01-03T14:19:01.432Z,100487.96
2023-01-03T14:20:09.845Z,100494.20
2023-01-03T14:21:23.478Z,100489.25
2023-01-03T14:22:31.316Z,100490.11
2023-01-03T14:23:59.054Z,100500.04
2023-01-03T14:24:36.514Z,100504.48
2023-01-03T14:25:40.744Z,100504.22
2023-01-03T14:26:46.021Z,100496.47
2023-01-03T14:27:49.334Z,100510.89
2023-01-03T14:28:54.064Z,100505.58
2023-01-03T14:29:57.710Z,100506.88
2023-01-03T14:31:10.148Z,100508.84
2023-01-03T14:32:25.438Z,100511.20
2023-01-03T14:33:35.877Z,100518.22
2023-01-03T14:34:42.100Z,100515.86
2023-01-03T14:35:46.581Z,100521.25
2023-01-03T14:36:50.811Z,100520.23
2023-01-03T14:37:56.088Z,100522.28
2023-01-03T14:38:59.874Z,100517.48
2023-01-03T14:40:05.301Z,100521.29
2023-01-03T14:41:10.549Z,100514.69
2023-01-03T14:42:15.626Z,100522.05
2023-01-03T14:43:21.568Z,100525.73
2023-01-03T14:44:30.253Z,100523.00
2023-01-03T14:45:35.427Z,100524.44
2023-01-03T14:46:44.333Z,100521.79
2023-01-03T14:47:48.401Z,100511.71
2023-01-03T14:48:51.570Z,100517.78
2023-01-03T14:49:56.205Z,100518.93
2023-01-03T14:51:04.364Z,100520.81
2023-01-03T14:52:11.630Z,100524.23
2023-01-03T14:53:15.205Z,100526.80
2023-01-03T14:54:22.474Z,100524.23
2023-01-03T14:55:28.904Z,100523.55
2023-01-03T14:56:36.670Z,100528.86
2023-01-03T14:57:41.138Z,100529.80
2023-01-03T14:58:47.523Z,100532.80
2023-01-03T14:59:50.913Z,100531.47
2023-01-03T15:00:54.909Z,100529.50
2023-01-03T15:01:58.517Z,100527.97
2023-01-03T15:03:03.572Z,100531.30
2023-01-03T15:04:10.661Z,100531.56
2023-01-03T15:05:18.835Z,100530.45
2023-01-03T15:06:30.301Z,100529.67
2023-01-03T15:07:34.324Z,100530.62
2023-01-03T15:08:40.408Z,100537.63
2023-01-03T15:09:45.172Z,100531.91
2023-01-03T15:10:50.143Z,100541.00
2023-01-03T15:11:58.284Z,100531.59
2023-01-03T15:13:04.673Z,100532.45
2023-01-03T15:14:06.522Z,100541.52
2023-01-03T15:15:30.664Z,100541.42
2023-01-03T15:16:34.896Z,100529.80
2023-01-03T15:17:41.271Z,100531.84
2023-01-03T15:18:45.063Z,100537.67
2023-01-03T15:19:52.861Z,100533.98
2023-01-03T15:20:56.366Z,100542.03
2023-01-03T15:22:08.297Z,100536.35
2023-01-03T15:23:23.116Z,100542.67
2023-01-03T15:24:27.563Z,100537.92
2023-01-03T15:25:35.662Z,100540.14
2023-01-03T15:26:39.895Z,100546.90
2023-01-03T15:27:44.654Z,100545.02
2023-01-03T15:28:51.908Z,100548.13
2023-01-03T15:29:55.116Z,100548.98
2023-01-03T15:31:00.945Z,100543.84
2023-01-03T15:32:06.256Z,100548.55
2023-01-03T15:33:23.186Z,100537.70
2023-01-03T15:34:28.324Z,100543.09
2023-01-03T15:35:34.597Z,100536.86
2023-01-03T15:36:39.124Z,100538.65
2023-01-03T15:37:42.308Z,100544.03